createdAt,value
2023-04-16T00:04:04.267Z,93.29
2023-04-16T00:07:10.695Z,93.05
2023-04-16T00:10:05.991Z,93.01
2023-04-16T00:12:47.511Z,92.99
2023-04-16T00:24:05.184Z,92.52
2023-04-16T00:26:35.425Z,92.48
2023-04-16T00:29:03.795Z,92.32
2023-04-16T00:31:33.681Z,92.55
2023-04-16T00:38:13.977Z,92.31
2023-04-16T00:41:38.571Z,92.39
2023-04-16T00:44:08.365Z,92.43
2023-04-16T00:47:03.676Z,92.32
2023-04-16T00:49:32.507Z,92.35
2023-04-16T00:52:02.676Z,92.51
2023-04-16T00:54:33.089Z,92.67
2023-04-16T00:57:02.345Z,92.85
2023-04-16T00:59:33.975Z,92.90
2023-04-16T01:02:02.211Z,92.81
2023-04-16T01:04:46.155Z,92.42
2023-04-16T01:07:14.244Z,92.41
2023-04-16T01:09:42.464Z,92.63
2023-04-16T01:12:11.493Z,92.93
2023-04-16T01:14:41.097Z,93.15
2023-04-16T01:17:10.389Z,93.46
2023-04-16T01:19:43.348Z,93.51
2023-04-16T01:22:42.841Z,93.53
2023-04-16T01:25:18.342Z,93.33
2023-04-16T01:27:46.600Z,92.92
2023-04-16T01:30:16.652Z,92.70
2023-04-16T01:33:06.397Z,92.73
2023-04-16T01:35:36.640Z,92.24
2023-04-16T01:42:31.064Z,91.97
2023-04-16T01:44:59.266Z,91.81
2023-04-16T01:47:29.534Z,91.77
2023-04-16T01:49:58.073Z,91.81
2023-04-16T02:00:57.455Z,91.53
2023-04-16T02:03:27.078Z,91.69
2023-04-16T02:05:56.455Z,92.05
2023-04-16T02:08:34.889Z,92.33
2023-04-16T02:11:03.298Z,92.61
2023-04-16T02:13:32.525Z,92.75
2023-04-16T02:17:04.480Z,92.99
2023-04-16T02:23:51.536Z,94.18
2023-04-16T02:26:23.984Z,93.99
2023-04-16T02:28:52.296Z,94.37
2023-04-16T02:31:26.435Z,94.84
2023-04-16T02:33:54.848Z,94.93
2023-04-16T02:36:29.048Z,94.92
2023-04-16T02:39:00.100Z,95.05
2023-04-16T02:41:28.355Z,95.00
2023-04-16T02:43:56.877Z,94.84
2023-04-16T02:46:26.241Z,94.68
2023-04-16T02:48:55.553Z,94.58
2023-04-16T02:51:23.704Z,94.49
2023-04-16T02:53:51.982Z,93.38
2023-04-16T02:56:21.588Z,92.16
2023-04-16T02:58:49.738Z,92.20
2023-04-16T03:01:18.385Z,92.12
2023-04-16T03:03:46.768Z,92.20
2023-04-16T03:06:15.006Z,92.35
2023-04-16T03:08:43.156Z,92.84
2023-04-16T03:11:11.532Z,93.39
2023-04-16T03:14:05.868Z,93.86
2023-04-16T03:16:40.128Z,94.05
2023-04-16T03:19:08.691Z,93.99
2023-04-16T03:21:37.868Z,93.95
2023-04-16T03:24:06.070Z,93.99
2023-04-16T03:26:34.253Z,94.02
2023-04-16T03:29:03.245Z,93.91
2023-04-16T03:31:34.650Z,93.81
2023-04-16T03:34:04.270Z,93.71
2023-04-16T03:36:34.165Z,93.62
2023-04-16T03:39:40.486Z,93.56
2023-04-16T03:42:18.063Z,93.46
2023-04-16T03:44:46.416Z,93.40
2023-04-16T03:47:16.810Z,93.32
2023-04-16T03:49:46.401Z,93.28
2023-04-16T03:52:20.833Z,93.31
2023-04-16T03:54:50.489Z,93.15
2023-04-16T03:57:25.282Z,92.89
2023-04-16T03:59:56.757Z,92.82
2023-04-16T04:02:28.784Z,92.74
2023-04-16T04:04:57.116Z,92.59
2023-04-16T04:07:25.431Z,92.53
2023-04-16T04:09:54.348Z,92.49
2023-04-16T04:12:23.324Z,92.53
2023-04-16T04:14:51.532Z,92.06
2023-04-16T04:17:21.851Z,90.44
2023-04-16T04:20:00.930Z,90.06
2023-04-16T04:22:31.933Z,90.21
2023-04-16T04:25:00.228Z,90.69
2023-04-16T04:27:32.408Z,90.80
2023-04-16T04:30:13.978Z,90.69
2023-04-16T04:37:10.080Z,91.80
2023-04-16T04:39:47.741Z,92.26
2023-04-16T04:42:43.489Z,92.62
2023-04-16T04:45:12.765Z,92.55
2023-04-16T04:47:46.729Z,92.31
2023-04-16T04:50:16.253Z,91.59
2023-04-16T04:52:45.817Z,91.41
2023-04-16T04:55:16.012Z,91.97
2023-04-16T04:57:45.207Z,92.38
2023-04-16T05:00:13.840Z,92.96
2023-04-16T05:02:53.472Z,93.02
2023-04-16T05:05:26.010Z,93.05
2023-04-16T05:07:55.680Z,93.21
2023-04-16T05:10:23.922Z,93.26
2023-04-16T05:13:10.444Z,93.29
2023-04-16T05:15:46.260Z,93.76
2023-04-16T05:22:39.620Z,93.20
2023-04-16T05:25:10.030Z,93.12
2023-04-16T05:27:42.053Z,92.63
2023-04-16T05:30:11.362Z,92.20
2023-04-16T05:32:41.422Z,91.71
2023-04-16T05:35:11.513Z,91.45
2023-04-16T05:45:50.066Z,90.04
2023-04-16T05:48:18.335Z,89.86
2023-04-16T05:50:57.725Z,89.79
2023-04-16T05:53:26.368Z,89.82
2023-04-16T05:55:54.650Z,89.87
2023-04-16T05:58:28.753Z,90.26
2023-04-16T06:00:58.439Z,90.33
2023-04-16T06:03:28.011Z,90.12
2023-04-16T06:06:00.491Z,89.83
2023-04-16T06:08:31.731Z,89.67
2023-04-16T06:11:01.148Z,88.80
2023-04-16T06:13:29.295Z,88.65
2023-04-16T06:15:58.940Z,88.41
2023-04-16T06:18:29.206Z,88.20
2023-04-16T06:20:58.938Z,88.28
2023-04-16T06:23:28.243Z,88.33
2023-04-16T06:25:56.411Z,88.11
2023-04-16T06:28:24.912Z,87.93
2023-04-16T06:35:25.517Z,87.57
2023-04-16T06:37:54.774Z,88.01
2023-04-16T06:40:23.158Z,87.86
2023-04-16T06:42:52.867Z,88.00
2023-04-16T06:45:21.341Z,87.63
2023-04-16T06:47:52.657Z,87.43
2023-04-16T06:50:26.655Z,87.73
2023-04-16T06:52:57.656Z,86.95
2023-04-16T06:55:25.906Z,87.03
2023-04-16T06:57:54.168Z,87.23
2023-04-16T07:00:30.856Z,87.12
2023-04-16T07:03:00.339Z,87.04
2023-04-16T07:05:30.024Z,87.49
2023-04-16T07:08:01.077Z,86.96
2023-04-16T07:10:30.270Z,86.88
2023-04-16T07:12:58.629Z,86.48
2023-04-16T07:15:29.835Z,85.71
2023-04-16T07:18:00.981Z,86.05
2023-04-16T07:20:36.275Z,85.67
2023-04-16T07:23:04.613Z,85.03
2023-04-16T07:25:33.954Z,84.80
2023-04-16T07:28:02.131Z,85.21
2023-04-16T07:30:34.170Z,85.90
2023-04-16T07:33:02.747Z,84.92
2023-04-16T07:35:38.388Z,83.70
2023-04-16T07:38:07.609Z,83.25
2023-04-16T07:40:36.418Z,84.70
2023-04-16T07:43:04.681Z,85.28
2023-04-16T07:45:37.789Z,83.50
2023-04-16T07:48:06.615Z,82.85
2023-04-16T07:50:38.464Z,85.27
2023-04-16T07:53:12.213Z,84.60
2023-04-16T07:55:45.717Z,85.12
2023-04-16T08:02:23.146Z,82.54
2023-04-16T08:09:11.417Z,82.08
2023-04-16T08:16:04.902Z,80.65
2023-04-16T08:18:36.136Z,80.82
2023-04-16T08:21:33.615Z,80.95
2023-04-16T08:24:18.495Z,81.52
2023-04-16T08:26:47.792Z,81.99
2023-04-16T08:34:00.716Z,79.73
2023-04-16T08:36:32.680Z,78.07
2023-04-16T08:39:07.054Z,79.30
2023-04-16T08:41:45.117Z,79.53
2023-04-16T08:52:20.394Z,78.95
2023-04-16T08:54:58.536Z,76.98
2023-04-16T09:01:57.427Z,78.50
2023-04-16T09:08:53.794Z,78.29
2023-04-16T09:15:47.084Z,77.05
2023-04-16T09:22:20.249Z,73.41
2023-04-16T09:25:40.217Z,74.05
2023-04-16T09:28:10.454Z,72.81
2023-04-16T09:30:47.975Z,74.13
2023-04-16T09:33:23.014Z,76.48
2023-04-16T09:36:10.852Z,73.66
2023-04-16T09:38:57.585Z,72.48
2023-04-16T09:41:28.709Z,73.11
2023-04-16T09:44:35.795Z,72.10
2023-04-16T09:47:10.617Z,72.20
2023-04-16T09:50:39.966Z,72.46
2023-04-16T09:53:11.954Z,70.38
2023-04-16T10:00:09.024Z,73.51
2023-04-16T10:03:19.309Z,70.25
2023-04-16T10:06:57.895Z,72.50
2023-04-16T10:09:33.705Z,70.44
2023-04-16T10:12:02.094Z,69.22
2023-04-16T10:15:21.897Z,68.05
2023-04-16T10:18:41.123Z,68.82
2023-04-16T10:25:36.187Z,69.22
2023-04-16T10:32:18.727Z,65.68
2023-04-16T10:39:14.745Z,69.83
2023-04-16T10:46:24.941Z,66.06
2023-04-16T10:49:01.336Z,67.43
2023-04-16T10:51:31.625Z,66.97
2023-04-16T10:58:30.169Z,59.78
2023-04-16T11:01:57.361Z,65.95
2023-04-16T11:04:32.079Z,55.66
2023-04-16T11:07:16.973Z,62.87
2023-04-16T11:09:47.854Z,57.66
2023-04-16T11:12:18.660Z,61.83
2023-04-16T11:14:50.302Z,65.41
2023-04-16T11:17:31.623Z,56.97
2023-04-16T11:20:50.180Z,61.32
2023-04-16T11:23:25.092Z,59.70
2023-04-16T11:26:31.022Z,61.99
2023-04-16T11:30:03.147Z,58.01
2023-04-16T11:32:38.171Z,60.00
2023-04-16T11:35:15.313Z,57.23
2023-04-16T11:38:38.244Z,57.79
2023-04-16T11:41:08.070Z,59.68
2023-04-16T11:43:37.560Z,58.33
2023-04-16T11:46:13.367Z,61.73
2023-04-16T11:49:17.434Z,58.27
2023-04-16T11:52:02.276Z,57.83
2023-04-16T11:54:35.213Z,57.32
2023-04-16T11:57:29.870Z,57.78
2023-04-16T12:04:25.100Z,56.45
2023-04-16T12:07:10.472Z,58.53
2023-04-16T12:09:41.329Z,56.64
2023-04-16T12:12:30.821Z,54.68
2023-04-16T12:15:03.877Z,55.55
2023-04-16T12:17:35.216Z,58.00
2023-04-16T12:20:08.888Z,55.81
2023-04-16T12:22:39.321Z,56.25
2023-04-16T12:25:26.490Z,57.92
2023-04-16T12:28:29.723Z,55.39
2023-04-16T12:30:58.491Z,54.60
2023-04-16T12:33:27.006Z,55.74
2023-04-16T12:35:56.516Z,57.31
2023-04-16T12:38:26.955Z,61.95
2023-04-16T12:41:22.486Z,60.00
2023-04-16T12:43:52.206Z,56.80
2023-04-16T12:46:20.474Z,56.97
2023-04-16T12:49:14.760Z,58.66
2023-04-16T12:51:45.182Z,57.03
2023-04-16T12:54:15.180Z,58.50
2023-04-16T12:56:44.460Z,56.94
2023-04-16T12:59:17.912Z,58.61
2023-04-16T13:01:48.510Z,58.96
2023-04-16T13:04:19.235Z,58.84
2023-04-16T13:06:48.034Z,59.64
2023-04-16T13:09:24.945Z,60.18
2023-04-16T13:11:55.530Z,59.30
2023-04-16T13:14:28.267Z,59.08
2023-04-16T13:17:00.672Z,61.02
2023-04-16T13:19:33.987Z,59.98
2023-04-16T13:22:02.594Z,57.61
2023-04-16T13:24:32.180Z,56.94
2023-04-16T13:27:00.667Z,57.41
2023-04-16T13:29:30.814Z,55.56
2023-04-16T13:32:02.299Z,56.20
2023-04-16T13:34:30.614Z,54.88
2023-04-16T13:36:59.157Z,53.90
2023-04-16T13:39:28.697Z,55.39
2023-04-16T13:41:58.037Z,55.08
2023-04-16T13:44:27.824Z,56.50
2023-04-16T13:46:57.588Z,52.60
2023-04-16T13:49:26.039Z,54.45
2023-04-16T13:51:55.395Z,54.17
2023-04-16T13:54:23.948Z,55.30
2023-04-16T13:56:52.561Z,52.64
2023-04-16T13:59:21.525Z,51.87
2023-04-16T14:01:50.250Z,52.56
2023-04-16T14:04:22.482Z,51.89
2023-04-16T14:06:50.961Z,52.66
2023-04-16T14:09:19.360Z,50.73
2023-04-16T14:11:47.880Z,53.03
2023-04-16T14:14:16.769Z,51.29
2023-04-16T14:16:45.302Z,54.16
2023-04-16T14:19:14.561Z,55.08
2023-04-16T14:21:44.303Z,58.09
2023-04-16T14:25:16.155Z,54.72
2023-04-16T14:32:38.415Z,53.79
2023-04-16T14:35:08.750Z,54.82
2023-04-16T14:38:35.293Z,51.54
2023-04-16T14:41:56.674Z,53.93
2023-04-16T14:45:17.149Z,51.49
2023-04-16T14:48:17.129Z,50.88
2023-04-16T14:51:11.233Z,51.57
2023-04-16T14:54:05.597Z,51.89
2023-04-16T14:56:58.768Z,51.23
2023-04-16T15:00:29.665Z,49.90
2023-04-16T15:11:22.411Z,50.65
2023-04-16T15:13:52.705Z,50.99
2023-04-16T15:16:21.619Z,52.81
2023-04-16T15:18:52.587Z,51.35
2023-04-16T15:21:23.180Z,51.43
2023-04-16T15:23:51.908Z,50.62
2023-04-16T15:26:23.608Z,49.58
2023-04-16T15:28:52.249Z,51.83
2023-04-16T15:31:23.131Z,52.85
2023-04-16T15:33:59.974Z,52.35
2023-04-16T15:36:30.816Z,51.55
2023-04-16T15:38:59.632Z,51.63
2023-04-16T15:41:30.816Z,52.20
2023-04-16T15:44:03.876Z,51.81
2023-04-16T15:46:32.751Z,53.31
2023-04-16T15:49:03.445Z,52.24
2023-04-16T15:51:32.676Z,52.72
2023-04-16T15:54:01.921Z,54.80
2023-04-16T15:56:33.376Z,55.94
2023-04-16T15:59:04.020Z,57.69
2023-04-16T16:01:33.064Z,57.87
2023-04-16T16:04:09.142Z,57.72
2023-04-16T16:06:40.098Z,58.64
2023-04-16T16:09:12.251Z,58.29
2023-04-16T16:11:43.680Z,59.60
2023-04-16T16:14:18.774Z,59.46
2023-04-16T16:16:47.452Z,59.36
2023-04-16T16:19:18.764Z,60.01
2023-04-16T16:21:50.122Z,60.05
2023-04-16T16:24:19.704Z,60.42
2023-04-16T16:26:51.366Z,60.72
2023-04-16T16:29:24.415Z,60.66
2023-04-16T16:31:55.137Z,60.89
2023-04-16T16:34:26.472Z,61.42
2023-04-16T16:36:56.282Z,60.95
2023-04-16T16:39:31.828Z,61.54
2023-04-16T16:42:03.348Z,62.06
2023-04-16T16:44:34.782Z,62.45
2023-04-16T16:47:04.002Z,64.33
2023-04-16T16:49:33.394Z,66.16
2023-04-16T16:52:02.591Z,67.49
2023-04-16T16:54:31.849Z,68.42
2023-04-16T16:57:02.950Z,69.56
2023-04-16T16:59:31.952Z,70.61
2023-04-16T17:02:01.525Z,70.96
2023-04-16T17:04:31.433Z,71.52
2023-04-16T17:07:01.192Z,71.94
2023-04-16T17:09:35.756Z,71.93
2023-04-16T17:12:07.251Z,72.35
2023-04-16T17:14:37.111Z,72.56
2023-04-16T17:17:08.275Z,72.82
2023-04-16T17:19:37.580Z,72.97
2023-04-16T17:22:07.289Z,73.56
2023-04-16T17:24:38.492Z,73.94
2023-04-16T17:27:09.859Z,74.61
2023-04-16T17:29:38.430Z,74.93
2023-04-16T17:32:07.365Z,75.51
2023-04-16T17:34:41.748Z,75.79
2023-04-16T17:37:10.209Z,76.02
2023-04-16T17:39:39.823Z,76.40
2023-04-16T17:42:10.478Z,76.44
2023-04-16T17:44:42.722Z,76.46
2023-04-16T17:47:11.914Z,76.33
2023-04-16T17:49:41.784Z,76.31
2023-04-16T17:52:12.902Z,76.19
2023-04-16T17:54:43.839Z,76.22
2023-04-16T17:57:14.900Z,76.49
2023-04-16T17:59:49.068Z,76.56
2023-04-16T18:02:18.055Z,76.84
2023-04-16T18:04:49.604Z,76.70
2023-04-16T18:07:24.134Z,76.78
2023-04-16T18:09:53.401Z,76.62
2023-04-16T18:12:25.033Z,76.44
2023-04-16T18:14:54.651Z,76.35
2023-04-16T18:17:23.425Z,76.24
2023-04-16T18:19:51.808Z,76.28
2023-04-16T18:22:21.024Z,76.43
2023-04-16T18:24:51.531Z,76.51
2023-04-16T18:27:23.245Z,76.15
2023-04-16T18:29:54.760Z,76.27
2023-04-16T18:32:30.611Z,76.11
2023-04-16T18:35:00.927Z,76.26
2023-04-16T18:37:32.817Z,76.22
2023-04-16T18:40:01.870Z,75.58
2023-04-16T18:42:31.354Z,75.65
2023-04-16T18:45:04.935Z,74.63
2023-04-16T18:47:40.786Z,74.01
2023-04-16T18:50:14.963Z,73.71
2023-04-16T18:52:44.267Z,73.75
2023-04-16T18:55:16.289Z,73.28
2023-04-16T18:57:49.326Z,73.66
2023-04-16T19:00:28.204Z,73.74
2023-04-16T19:03:02.045Z,73.70
2023-04-16T19:05:31.889Z,73.60
2023-04-16T19:08:01.751Z,73.23
2023-04-16T19:10:30.662Z,73.36
2023-04-16T19:13:08.042Z,73.02
2023-04-16T19:15:40.810Z,72.71
2023-04-16T19:18:11.381Z,72.78
2023-04-16T19:20:42.336Z,73.19
2023-04-16T19:23:13.758Z,73.09
2023-04-16T19:25:44.527Z,73.11
2023-04-16T19:28:13.364Z,72.93
2023-04-16T19:30:48.214Z,72.86
2023-04-16T19:33:17.618Z,72.87
2023-04-16T19:35:50.911Z,72.74
2023-04-16T19:38:20.352Z,72.80
2023-04-16T19:40:52.561Z,73.10
2023-04-16T19:43:22.373Z,72.76
2023-04-16T19:45:54.113Z,72.25
2023-04-16T19:48:23.239Z,72.05
2023-04-16T19:50:52.408Z,71.76
2023-04-16T19:53:22.028Z,71.58
2023-04-16T19:55:51.678Z,72.01
2023-04-16T19:58:20.591Z,71.75
2023-04-16T20:00:49.504Z,71.38
2023-04-16T20:03:20.549Z,71.12
2023-04-16T20:05:52.409Z,71.55
2023-04-16T20:08:23.368Z,71.63
2023-04-16T20:10:55.640Z,71.46
2023-04-16T20:13:25.070Z,71.06
2023-04-16T20:15:54.713Z,70.99
2023-04-16T20:18:28.137Z,70.64
2023-04-16T20:20:57.942Z,70.88
2023-04-16T20:23:26.371Z,71.02
2023-04-16T20:25:55.177Z,70.67
2023-04-16T20:28:24.419Z,71.09
2023-04-16T20:30:56.827Z,70.68
2023-04-16T20:33:26.878Z,70.86
2023-04-16T20:35:56.682Z,71.39
2023-04-16T20:38:27.039Z,70.92
2023-04-16T20:41:06.360Z,70.65
2023-04-16T20:43:38.646Z,70.88
2023-04-16T20:46:06.917Z,70.75
2023-04-16T20:48:37.048Z,71.43
2023-04-16T20:51:06.567Z,71.56
2023-04-16T20:53:35.291Z,71.49
2023-04-16T20:56:04.550Z,71.85
2023-04-16T20:58:32.827Z,71.84
2023-04-16T21:01:01.355Z,73.06
2023-04-16T21:03:29.787Z,73.28
2023-04-16T21:06:01.938Z,73.35
2023-04-16T21:08:30.189Z,72.84
2023-04-16T21:10:58.428Z,73.44
2023-04-16T21:13:26.612Z,73.80
2023-04-16T21:15:54.881Z,73.24
2023-04-16T21:18:23.986Z,72.61
2023-04-16T21:20:52.215Z,71.68
2023-04-16T21:23:21.971Z,71.36
2023-04-16T21:25:50.298Z,72.01
2023-04-16T21:28:19.623Z,70.16
2023-04-16T21:30:48.057Z,70.62
2023-04-16T21:33:16.882Z,70.50
2023-04-16T21:35:45.207Z,70.12
2023-04-16T21:38:13.416Z,70.55
2023-04-16T21:40:43.033Z,71.98
2023-04-16T21:43:11.206Z,74.42
2023-04-16T21:45:40.045Z,74.51
2023-04-16T21:48:08.509Z,73.54
2023-04-16T21:50:36.740Z,71.83
2023-04-16T21:53:09.082Z,71.95
2023-04-16T21:55:37.864Z,71.86
2023-04-16T21:58:07.756Z,71.43
2023-04-16T22:00:36.018Z,70.90
2023-04-16T22:03:06.285Z,70.70
2023-04-16T22:05:34.780Z,70.60
2023-04-16T22:08:10.916Z,70.37
2023-04-16T22:10:49.634Z,70.12
2023-04-16T22:13:19.246Z,69.77
2023-04-16T22:15:47.426Z,69.73
2023-04-16T22:18:15.721Z,70.53
2023-04-16T22:20:43.903Z,73.34
2023-04-16T22:23:12.164Z,75.15
2023-04-16T22:25:40.343Z,74.32
2023-04-16T22:28:08.520Z,73.88
2023-04-16T22:30:38.026Z,73.96
2023-04-16T22:33:06.214Z,73.87
2023-04-16T22:35:36.079Z,75.04
2023-04-16T22:38:04.330Z,75.75
2023-04-16T22:40:33.096Z,75.97
2023-04-16T22:43:01.324Z,76.43
2023-04-16T22:45:29.671Z,77.77
2023-04-16T22:47:59.605Z,78.35
2023-04-16T22:50:31.559Z,77.90
2023-04-16T22:52:59.840Z,77.80
2023-04-16T22:55:28.124Z,77.40
2023-04-16T22:57:56.242Z,76.87
2023-04-16T23:00:25.120Z,76.50
2023-04-16T23:02:53.339Z,76.51
2023-04-16T23:05:23.171Z,75.56
2023-04-16T23:07:51.421Z,75.09
2023-04-16T23:10:19.584Z,74.22
2023-04-16T23:12:47.777Z,73.85
2023-04-16T23:15:17.508Z,74.00
2023-04-16T23:17:46.183Z,74.42
2023-04-16T23:20:14.813Z,74.82
2023-04-16T23:22:44.334Z,75.32
2023-04-16T23:25:12.526Z,75.19
2023-04-16T23:27:40.607Z,76.05
2023-04-16T23:30:09.855Z,78.00
2023-04-16T23:32:38.083Z,77.75
2023-04-16T23:35:07.101Z,78.25
2023-04-16T23:37:36.657Z,78.79
2023-04-16T23:40:08.300Z,78.95
2023-04-16T23:42:36.445Z,79.75
2023-04-16T23:45:04.861Z,80.23
2023-04-16T23:47:33.110Z,80.92
2023-04-16T23:50:01.548Z,81.22
2023-04-16T23:52:29.799Z,81.28
2023-04-16T23:54:57.921Z,81.26
2023-04-16T23:57:27.461Z,80.66
2023-04-16T23:59:55.609Z,80.56
